createdAt,value
2023-03-17T00:01:58.792Z,1.30
2023-03-17T00:04:27.315Z,1.20
2023-03-17T00:06:55.094Z,1.20
2023-03-17T00:09:22.603Z,1.20
2023-03-17T00:11:50.122Z,1.10
2023-03-17T00:14:18.858Z,1.20
2023-03-17T00:16:49.855Z,1.20
2023-03-17T00:19:20.085Z,1.20
2023-03-17T00:21:47.980Z,1.20
2023-03-17T00:24:15.886Z,1.20
2023-03-17T00:26:43.617Z,1.30
2023-03-17T00:29:10.972Z,1.30
2023-03-17T00:31:39.210Z,1.30
2023-03-17T00:34:07.970Z,1.30
2023-03-17T00:36:35.642Z,1.30
2023-03-17T00:39:04.102Z,1.30
2023-03-17T00:41:31.347Z,1.40
2023-03-17T00:43:59.743Z,1.40
2023-03-17T00:46:35.438Z,1.40
2023-03-17T00:49:10.593Z,1.50
2023-03-17T00:51:40.727Z,1.50
2023-03-17T00:54:10.607Z,1.50
2023-03-17T00:56:38.590Z,1.50
2023-03-17T00:59:13.470Z,1.50
2023-03-17T01:01:40.693Z,1.40
2023-03-17T01:04:10.750Z,1.40
2023-03-17T01:06:38.043Z,1.40
2023-03-17T01:09:05.411Z,1.40
2023-03-17T01:11:32.792Z,1.40
2023-03-17T01:14:00.098Z,1.40
2023-03-17T01:16:29.936Z,1.40
2023-03-17T01:18:57.198Z,1.40
2023-03-17T01:21:24.563Z,1.40
2023-03-17T01:23:51.756Z,1.40
2023-03-17T01:26:19.120Z,1.40
2023-03-17T01:28:46.311Z,1.30
2023-03-17T01:31:13.644Z,1.30
2023-03-17T01:33:41.470Z,1.30
2023-03-17T01:36:09.844Z,1.20
2023-03-17T01:38:37.673Z,1.30
2023-03-17T01:41:05.444Z,1.30
2023-03-17T01:43:32.730Z,1.40
2023-03-17T01:46:21.928Z,1.30
2023-03-17T01:49:30.303Z,1.50
2023-03-17T01:52:18.266Z,1.40
2023-03-17T01:54:52.401Z,1.40
2023-03-17T01:57:31.918Z,1.30
2023-03-17T02:00:09.700Z,1.30
2023-03-17T02:02:45.497Z,1.30
2023-03-17T02:05:25.995Z,1.20
2023-03-17T02:07:54.444Z,1.20
2023-03-17T02:10:28.726Z,1.20
2023-03-17T02:13:00.393Z,1.20
2023-03-17T02:15:46.714Z,1.20
2023-03-17T02:18:14.401Z,1.20
2023-03-17T02:20:41.455Z,1.20
2023-03-17T02:23:10.736Z,1.20
2023-03-17T02:25:40.579Z,1.10
2023-03-17T02:28:11.087Z,1.10
2023-03-17T02:30:38.298Z,1.10
2023-03-17T02:33:06.105Z,1.00
2023-03-17T02:35:33.369Z,1.00
2023-03-17T02:38:01.166Z,1.00
2023-03-17T02:40:30.178Z,1.00
2023-03-17T02:42:57.543Z,1.00
2023-03-17T02:45:28.917Z,0.90
2023-03-17T02:47:57.243Z,0.90
2023-03-17T02:50:26.229Z,0.80
2023-03-17T02:52:53.498Z,0.80
2023-03-17T02:55:23.675Z,0.70
2023-03-17T02:57:51.883Z,0.70
2023-03-17T03:00:19.642Z,0.80
2023-03-17T03:02:47.031Z,0.80
2023-03-17T03:05:14.287Z,0.80
2023-03-17T03:07:41.543Z,0.90
2023-03-17T03:10:09.897Z,0.90
2023-03-17T03:12:37.306Z,0.90
2023-03-17T03:15:05.281Z,1.10
2023-03-17T03:17:32.703Z,1.10
2023-03-17T03:20:00.084Z,1.10
2023-03-17T03:22:27.461Z,1.10
2023-03-17T03:24:54.628Z,1.20
2023-03-17T03:27:22.228Z,1.20
2023-03-17T03:29:49.425Z,1.20
2023-03-17T03:32:17.116Z,1.20
2023-03-17T03:34:44.381Z,1.30
2023-03-17T03:37:11.671Z,1.30
2023-03-17T03:39:39.160Z,1.20
2023-03-17T03:42:07.097Z,1.20
2023-03-17T03:44:34.306Z,1.30
2023-03-17T03:47:01.806Z,1.20
2023-03-17T03:49:29.271Z,1.20
2023-03-17T03:51:56.895Z,1.20
2023-03-17T03:54:26.205Z,1.20
2023-03-17T03:56:53.422Z,1.20
2023-03-17T03:59:21.003Z,1.20
2023-03-17T04:01:48.243Z,1.20
2023-03-17T04:04:16.322Z,1.20
2023-03-17T04:06:43.587Z,1.10
2023-03-17T04:09:13.613Z,1.20
2023-03-17T04:11:41.822Z,1.20
2023-03-17T04:14:09.048Z,1.20
2023-03-17T04:16:36.528Z,1.20
2023-03-17T04:19:03.973Z,1.20
2023-03-17T04:21:31.207Z,1.20
2023-03-17T04:23:58.768Z,1.20
2023-03-17T04:26:26.045Z,1.30
2023-03-17T04:28:53.336Z,1.20
2023-03-17T04:31:21.173Z,1.30
2023-03-17T04:33:48.893Z,1.30
2023-03-17T04:36:20.620Z,1.30
2023-03-17T04:38:48.004Z,1.40
2023-03-17T04:41:15.386Z,1.40
2023-03-17T04:43:42.613Z,1.40
2023-03-17T04:46:10.037Z,1.40
2023-03-17T04:48:37.295Z,1.40
2023-03-17T04:51:04.812Z,1.30
2023-03-17T04:53:32.612Z,1.30
2023-03-17T04:55:59.799Z,1.40
2023-03-17T04:58:30.913Z,1.40
2023-03-17T05:01:02.512Z,1.40
2023-03-17T05:03:30.310Z,1.40
2023-03-17T05:06:00.990Z,1.30
2023-03-17T05:08:31.379Z,1.30
2023-03-17T05:10:58.795Z,1.30
2023-03-17T05:13:26.351Z,1.30
2023-03-17T05:15:55.291Z,1.30
2023-03-17T05:18:25.939Z,1.20
2023-03-17T05:20:53.320Z,1.20
2023-03-17T05:23:20.846Z,1.30
2023-03-17T05:25:48.454Z,1.30
2023-03-17T05:28:15.877Z,1.50
2023-03-17T05:30:43.190Z,1.60
2023-03-17T05:33:10.566Z,1.90
2023-03-17T05:35:38.100Z,2.10
2023-03-17T05:38:05.325Z,2.20
2023-03-17T05:40:32.804Z,2.30
2023-03-17T05:43:03.524Z,2.60
2023-03-17T05:45:30.824Z,2.70
2023-03-17T05:47:58.122Z,2.90
2023-03-17T05:50:26.009Z,3.10
2023-03-17T05:52:53.560Z,3.20
2023-03-17T05:55:20.979Z,3.20
2023-03-17T05:57:51.497Z,3.30
2023-03-17T06:00:23.153Z,3.50
2023-03-17T06:02:50.542Z,3.60
2023-03-17T06:05:17.905Z,3.70
2023-03-17T06:07:53.954Z,3.90
2023-03-17T06:10:24.221Z,4.00
2023-03-17T06:12:51.552Z,4.20
2023-03-17T06:15:19.240Z,4.30
2023-03-17T06:17:46.667Z,4.60
2023-03-17T06:20:14.527Z,4.70
2023-03-17T06:23:00.309Z,4.90
2023-03-17T06:25:30.620Z,4.90
2023-03-17T06:27:58.214Z,5.00
2023-03-17T06:30:25.534Z,5.10
2023-03-17T06:32:52.854Z,5.10
2023-03-17T06:35:23.082Z,5.10
2023-03-17T06:37:50.308Z,5.10
2023-03-17T06:40:18.018Z,5.20
2023-03-17T06:42:45.692Z,5.20
2023-03-17T06:45:13.314Z,5.30
2023-03-17T06:47:44.862Z,5.30
2023-03-17T06:50:22.596Z,5.40
2023-03-17T06:52:49.857Z,5.50
2023-03-17T06:55:18.023Z,5.50
2023-03-17T06:57:45.341Z,5.50
2023-03-17T07:00:14.239Z,5.70
2023-03-17T07:02:42.211Z,5.70
2023-03-17T07:05:09.906Z,5.80
2023-03-17T07:07:37.092Z,5.90
2023-03-17T07:10:05.738Z,5.80
2023-03-17T07:12:33.330Z,6.00
2023-03-17T07:15:01.412Z,6.00
2023-03-17T07:17:28.956Z,6.00
2023-03-17T07:19:56.627Z,6.00
2023-03-17T07:22:27.283Z,6.00
2023-03-17T07:24:54.582Z,6.10
2023-03-17T07:27:25.253Z,6.20
2023-03-17T07:29:53.138Z,6.20
2023-03-17T07:32:20.425Z,6.20
2023-03-17T07:34:47.668Z,6.20
2023-03-17T07:37:15.328Z,6.30
2023-03-17T07:39:42.613Z,6.30
2023-03-17T07:42:12.116Z,6.40
2023-03-17T07:44:41.561Z,6.50
2023-03-17T07:47:10.209Z,6.60
2023-03-17T07:49:41.567Z,6.70
2023-03-17T07:52:10.407Z,6.80
2023-03-17T07:54:37.771Z,6.70
2023-03-17T07:57:05.899Z,6.70
2023-03-17T07:59:33.514Z,6.70
2023-03-17T08:02:01.466Z,6.70
2023-03-17T08:04:29.241Z,6.80
2023-03-17T08:06:57.588Z,6.90
2023-03-17T08:09:25.701Z,7.00
2023-03-17T08:11:52.984Z,7.10
2023-03-17T08:14:20.507Z,7.20
2023-03-17T08:16:48.231Z,7.20
2023-03-17T08:19:16.430Z,7.20
2023-03-17T08:21:43.717Z,7.20
2023-03-17T08:24:11.970Z,7.20
2023-03-17T08:26:39.208Z,7.20
2023-03-17T08:29:08.219Z,7.10
2023-03-17T08:31:46.557Z,7.20
2023-03-17T08:34:14.113Z,7.20
2023-03-17T08:36:41.499Z,7.30
2023-03-17T08:39:10.540Z,7.40
2023-03-17T08:41:43.715Z,7.40
2023-03-17T08:44:17.285Z,7.40
2023-03-17T08:46:44.604Z,7.20
2023-03-17T08:49:12.681Z,7.30
2023-03-17T08:51:40.222Z,7.40
2023-03-17T08:54:07.817Z,7.60
2023-03-17T08:56:35.248Z,7.90
2023-03-17T08:59:06.878Z,7.90
2023-03-17T09:01:38.251Z,7.90
2023-03-17T09:04:05.759Z,7.90
2023-03-17T09:06:48.906Z,7.90
2023-03-17T09:09:23.631Z,7.90
2023-03-17T09:11:50.850Z,8.10
2023-03-17T09:14:21.533Z,8.20
2023-03-17T09:16:49.661Z,8.20
2023-03-17T09:19:20.391Z,8.20
2023-03-17T09:21:47.941Z,8.30
2023-03-17T09:24:15.310Z,8.50
2023-03-17T09:26:42.504Z,8.40
2023-03-17T09:29:12.678Z,8.30
2023-03-17T09:31:41.636Z,8.40
2023-03-17T09:34:09.829Z,8.50
2023-03-17T09:36:37.579Z,8.50
2023-03-17T09:39:04.827Z,8.60
2023-03-17T09:42:08.223Z,8.60
2023-03-17T09:45:09.551Z,8.70
2023-03-17T09:48:24.485Z,8.70
2023-03-17T09:51:11.715Z,8.70
2023-03-17T09:54:28.270Z,8.60
2023-03-17T09:57:04.463Z,8.60
2023-03-17T09:59:41.028Z,8.50
2023-03-17T10:02:30.892Z,8.50
2023-03-17T10:04:58.495Z,8.60
2023-03-17T10:07:44.772Z,8.70
2023-03-17T10:10:37.433Z,8.70
2023-03-17T10:13:36.966Z,8.80
2023-03-17T10:16:12.343Z,8.70
2023-03-17T10:18:49.677Z,8.80
2023-03-17T10:21:21.638Z,9.10
2023-03-17T10:23:49.211Z,9.30
2023-03-17T10:26:40.620Z,9.60
2023-03-17T10:29:34.240Z,9.80
2023-03-17T10:32:13.221Z,10.00
2023-03-17T10:34:41.632Z,10.20
2023-03-17T10:37:18.309Z,10.30
2023-03-17T10:39:51.435Z,10.50
2023-03-17T10:42:30.017Z,10.60
2023-03-17T10:45:17.621Z,10.70
2023-03-17T10:47:47.915Z,10.70
2023-03-17T10:50:25.319Z,10.70
2023-03-17T10:53:28.345Z,10.70
2023-03-17T10:56:08.460Z,10.70
2023-03-17T10:58:49.155Z,10.80
2023-03-17T11:01:30.370Z,10.90
2023-03-17T11:03:58.032Z,11.00
2023-03-17T11:06:38.238Z,11.00
2023-03-17T11:09:11.059Z,10.80
2023-03-17T11:11:46.996Z,10.50
2023-03-17T11:14:19.070Z,10.40
2023-03-17T11:16:53.872Z,10.30
2023-03-17T11:19:31.864Z,10.30
2023-03-17T11:22:21.128Z,10.30
2023-03-17T11:25:10.062Z,10.40
2023-03-17T11:27:54.163Z,10.50
2023-03-17T11:30:33.988Z,10.40
2023-03-17T11:33:42.493Z,10.20
2023-03-17T11:36:37.478Z,10.10
2023-03-17T11:39:34.357Z,9.90
2023-03-17T11:42:23.145Z,9.70
2023-03-17T11:44:56.280Z,9.70
2023-03-17T11:47:39.369Z,9.70
2023-03-17T11:50:34.212Z,9.80
2023-03-17T11:53:30.396Z,9.80
2023-03-17T11:56:19.053Z,9.90
2023-03-17T11:58:50.079Z,9.80
2023-03-17T12:01:27.257Z,9.90
2023-03-17T12:04:23.321Z,9.90
2023-03-17T12:06:56.072Z,9.80
2023-03-17T12:10:09.969Z,9.90
2023-03-17T12:13:02.611Z,10.10
2023-03-17T12:15:54.052Z,10.10
2023-03-17T12:18:43.040Z,10.20
2023-03-17T12:21:39.928Z,10.30
2023-03-17T12:24:35.644Z,10.40
2023-03-17T12:27:25.985Z,10.40
2023-03-17T12:30:08.092Z,10.60
2023-03-17T12:32:42.897Z,10.70
2023-03-17T12:35:29.260Z,10.80
2023-03-17T12:37:58.335Z,10.90
2023-03-17T12:40:48.168Z,11.00
2023-03-17T12:43:35.721Z,11.10
2023-03-17T12:46:28.943Z,11.20
2023-03-17T12:49:11.335Z,11.20
2023-03-17T12:51:59.070Z,11.20
2023-03-17T12:54:36.999Z,11.20
2023-03-17T12:57:25.206Z,11.20
2023-03-17T13:00:05.666Z,11.20
2023-03-17T13:02:37.330Z,11.20
2023-03-17T13:05:32.641Z,11.20
2023-03-17T13:08:11.005Z,11.30
2023-03-17T13:10:40.937Z,11.30
2023-03-17T13:13:13.216Z,11.40
2023-03-17T13:15:40.517Z,11.40
2023-03-17T13:18:16.899Z,11.30
2023-03-17T13:21:13.640Z,11.30
2023-03-17T13:24:15.615Z,11.30
2023-03-17T13:27:00.847Z,11.30
2023-03-17T13:29:33.803Z,11.30
2023-03-17T13:32:16.906Z,11.40
2023-03-17T13:34:56.066Z,11.50
2023-03-17T13:37:47.835Z,11.50
2023-03-17T13:40:23.606Z,11.60
2023-03-17T13:43:19.938Z,11.60
2023-03-17T13:45:50.040Z,11.60
2023-03-17T13:48:38.153Z,11.50
2023-03-17T13:51:08.840Z,11.50
2023-03-17T13:53:59.021Z,11.50
2023-03-17T13:56:42.559Z,11.40
2023-03-17T13:59:17.413Z,11.30
2023-03-17T14:02:02.096Z,11.20
2023-03-17T14:04:45.149Z,11.10
2023-03-17T14:07:16.802Z,11.10
2023-03-17T14:09:44.063Z,11.10
2023-03-17T14:12:25.983Z,11.20
2023-03-17T14:15:08.261Z,11.20
2023-03-17T14:18:03.251Z,11.20
2023-03-17T14:20:30.668Z,11.20
2023-03-17T14:23:01.647Z,11.10
2023-03-17T14:25:38.973Z,11.10
2023-03-17T14:28:10.759Z,11.10
2023-03-17T14:30:39.818Z,11.10
2023-03-17T14:33:26.635Z,11.20
2023-03-17T14:35:57.152Z,11.20
2023-03-17T14:38:30.417Z,11.30
2023-03-17T14:41:13.767Z,11.20
2023-03-17T14:43:52.796Z,11.20
2023-03-17T14:46:42.083Z,11.30
2023-03-17T14:49:19.148Z,11.20
2023-03-17T14:51:59.153Z,11.20
2023-03-17T14:54:33.467Z,11.20
2023-03-17T14:57:07.865Z,11.20
2023-03-17T14:59:56.410Z,11.00
2023-03-17T15:02:35.752Z,10.90
2023-03-17T15:05:40.453Z,10.80
2023-03-17T15:08:46.663Z,10.70
2023-03-17T15:11:43.442Z,10.70
2023-03-17T15:14:37.220Z,10.70
2023-03-17T15:17:27.258Z,10.70
2023-03-17T15:19:57.852Z,10.60
2023-03-17T15:22:50.033Z,10.60
2023-03-17T15:25:32.896Z,10.60
2023-03-17T15:28:00.311Z,10.50
2023-03-17T15:30:44.388Z,10.50
2023-03-17T15:33:21.976Z,10.50
2023-03-17T15:35:53.365Z,10.40
2023-03-17T15:38:21.688Z,10.30
2023-03-17T15:40:49.251Z,10.30
2023-03-17T15:43:17.626Z,10.20
2023-03-17T15:45:45.315Z,10.20
2023-03-17T15:48:35.214Z,10.20
2023-03-17T15:51:05.739Z,10.20
2023-03-17T15:53:32.883Z,10.20
2023-03-17T15:56:00.411Z,10.20
2023-03-17T15:58:27.579Z,10.20
2023-03-17T16:01:01.281Z,10.20
2023-03-17T16:03:33.384Z,10.20
2023-03-17T16:06:04.580Z,10.20
2023-03-17T16:08:31.928Z,10.10
2023-03-17T16:11:02.019Z,10.10
2023-03-17T16:13:30.156Z,10.10
2023-03-17T16:16:05.724Z,10.10
2023-03-17T16:18:42.373Z,10.10
2023-03-17T16:21:12.939Z,10.00
2023-03-17T16:23:40.112Z,10.00
2023-03-17T16:26:15.631Z,9.90
2023-03-17T16:28:46.033Z,9.90
2023-03-17T16:31:34.570Z,9.90
2023-03-17T16:34:01.982Z,9.90
2023-03-17T16:36:32.157Z,9.70
2023-03-17T16:39:00.061Z,9.70
2023-03-17T16:41:28.325Z,9.70
2023-03-17T16:44:00.654Z,9.60
2023-03-17T16:46:34.851Z,9.60
2023-03-17T16:49:04.194Z,9.50
2023-03-17T16:51:31.568Z,9.50
2023-03-17T16:54:01.203Z,9.40
2023-03-17T16:56:28.741Z,9.30
2023-03-17T16:58:55.937Z,9.30
2023-03-17T17:01:31.302Z,9.20
2023-03-17T17:03:58.607Z,9.20
2023-03-17T17:06:26.056Z,9.20
2023-03-17T17:08:53.373Z,9.20
2023-03-17T17:11:20.849Z,9.10
2023-03-17T17:13:48.613Z,9.00
2023-03-17T17:16:36.698Z,8.90
2023-03-17T17:19:04.389Z,8.90
2023-03-17T17:21:33.013Z,8.80
2023-03-17T17:24:00.448Z,8.70
2023-03-17T17:26:27.625Z,8.70
2023-03-17T17:28:54.869Z,8.70
2023-03-17T17:31:22.500Z,8.70
2023-03-17T17:33:49.615Z,8.70
2023-03-17T17:36:17.202Z,8.60
2023-03-17T17:38:44.517Z,8.60
2023-03-17T17:41:12.034Z,8.60
2023-03-17T17:43:39.569Z,8.50
2023-03-17T17:46:18.128Z,8.50
2023-03-17T17:48:45.731Z,8.50
2023-03-17T17:51:12.943Z,8.50
2023-03-17T17:53:40.399Z,8.40
2023-03-17T17:56:10.771Z,8.50
2023-03-17T17:58:37.946Z,8.40
2023-03-17T18:01:05.622Z,8.40
2023-03-17T18:03:33.255Z,8.40
2023-03-17T18:06:01.129Z,8.30
2023-03-17T18:08:28.411Z,8.30
2023-03-17T18:10:56.663Z,8.30
2023-03-17T18:13:24.047Z,8.30
2023-03-17T18:15:51.914Z,8.20
2023-03-17T18:18:19.086Z,8.20
2023-03-17T18:20:46.248Z,8.20
2023-03-17T18:23:13.431Z,8.20
2023-03-17T18:25:41.155Z,8.20
2023-03-17T18:28:08.280Z,8.20
2023-03-17T18:30:35.753Z,8.10
2023-03-17T18:33:10.193Z,8.00
2023-03-17T18:35:37.382Z,8.00
2023-03-17T18:38:04.650Z,7.80
2023-03-17T18:40:33.105Z,7.70
2023-03-17T18:43:00.758Z,7.70
2023-03-17T18:45:28.026Z,7.70
2023-03-17T18:47:55.201Z,7.70
2023-03-17T18:50:22.437Z,7.70
2023-03-17T18:52:49.636Z,7.70
2023-03-17T18:55:17.177Z,7.60
2023-03-17T18:57:45.030Z,7.60
2023-03-17T19:00:14.087Z,7.60
2023-03-17T19:02:41.720Z,7.50
2023-03-17T19:05:09.610Z,7.50
2023-03-17T19:07:40.140Z,7.50
2023-03-17T19:10:12.056Z,7.50
2023-03-17T19:12:39.741Z,7.40
2023-03-17T19:15:10.356Z,7.40
2023-03-17T19:17:39.163Z,7.40
2023-03-17T19:20:08.688Z,7.40
2023-03-17T19:22:38.615Z,7.30
2023-03-17T19:25:06.362Z,7.30
2023-03-17T19:27:35.640Z,7.20
2023-03-17T19:30:04.622Z,7.20
2023-03-17T19:32:31.785Z,7.20
2023-03-17T19:34:58.973Z,7.20
2023-03-17T19:37:26.217Z,7.20
2023-03-17T19:39:53.493Z,7.10
2023-03-17T19:42:21.151Z,7.00
2023-03-17T19:44:48.316Z,6.90
2023-03-17T19:47:21.885Z,6.90
2023-03-17T19:49:49.065Z,6.90
2023-03-17T19:52:16.246Z,6.80
2023-03-17T19:54:45.862Z,6.80
2023-03-17T19:57:13.673Z,6.80
2023-03-17T19:59:43.205Z,6.80
2023-03-17T20:02:14.198Z,6.80
2023-03-17T20:04:41.495Z,6.70
2023-03-17T20:07:11.753Z,6.70
2023-03-17T20:09:42.211Z,6.70
2023-03-17T20:12:09.404Z,6.60
2023-03-17T20:14:36.798Z,6.60
2023-03-17T20:17:04.015Z,6.60
2023-03-17T20:19:31.649Z,6.50
2023-03-17T20:21:58.832Z,6.50
2023-03-17T20:24:27.112Z,6.50
2023-03-17T20:26:56.241Z,6.50
2023-03-17T20:29:24.104Z,6.50
2023-03-17T20:31:51.452Z,6.50
2023-03-17T20:34:18.613Z,6.50
2023-03-17T20:36:46.094Z,6.50
2023-03-17T20:39:19.692Z,6.50
2023-03-17T20:41:48.479Z,6.40
2023-03-17T20:44:18.900Z,6.40
2023-03-17T20:46:46.654Z,6.40
2023-03-17T20:49:13.899Z,6.40
2023-03-17T20:51:47.887Z,6.40
2023-03-17T20:54:23.308Z,6.30
2023-03-17T20:57:01.026Z,6.30
2023-03-17T20:59:28.276Z,6.30
2023-03-17T21:01:56.037Z,6.20
2023-03-17T21:04:23.256Z,6.20
2023-03-17T21:06:50.424Z,6.20
2023-03-17T21:09:17.691Z,6.10
2023-03-17T21:11:44.956Z,6.10
2023-03-17T21:14:13.856Z,6.00
2023-03-17T21:16:47.926Z,5.90
2023-03-17T21:19:16.240Z,6.00
2023-03-17T21:21:43.378Z,5.90
2023-03-17T21:24:25.048Z,5.90
2023-03-17T21:26:52.325Z,5.90
2023-03-17T21:29:19.478Z,5.90
2023-03-17T21:31:49.349Z,5.90
2023-03-17T21:34:25.606Z,5.90
2023-03-17T21:37:12.910Z,5.90
2023-03-17T21:39:52.758Z,5.90
2023-03-17T21:42:20.139Z,6.00
2023-03-17T21:44:48.331Z,5.90
2023-03-17T21:47:16.511Z,5.90
2023-03-17T21:49:43.654Z,6.00
2023-03-17T21:52:10.863Z,6.00
2023-03-17T21:54:38.039Z,6.00
2023-03-17T21:57:05.242Z,6.00
2023-03-17T21:59:34.440Z,5.90
2023-03-17T22:02:01.916Z,5.90
2023-03-17T22:04:29.060Z,5.90
2023-03-17T22:06:56.377Z,5.90
2023-03-17T22:09:23.542Z,5.80
2023-03-17T22:11:50.814Z,5.90
2023-03-17T22:14:20.149Z,5.80
2023-03-17T22:16:48.446Z,5.90
2023-03-17T22:19:16.916Z,5.80
2023-03-17T22:21:44.933Z,5.80
2023-03-17T22:24:12.679Z,5.90
2023-03-17T22:26:39.884Z,5.90
2023-03-17T22:29:07.090Z,5.90
2023-03-17T22:31:35.440Z,5.90
2023-03-17T22:34:02.846Z,5.80
2023-03-17T22:36:30.263Z,5.80
2023-03-17T22:38:58.381Z,5.80
2023-03-17T22:41:28.208Z,5.80
2023-03-17T22:43:55.520Z,5.80
2023-03-17T22:46:22.947Z,5.80
2023-03-17T22:48:50.360Z,5.80
2023-03-17T22:51:23.096Z,5.80
2023-03-17T22:53:50.952Z,5.80
2023-03-17T22:56:18.469Z,5.80
2023-03-17T22:58:45.959Z,5.90
2023-03-17T23:01:15.133Z,5.80
2023-03-17T23:03:43.175Z,5.80
2023-03-17T23:06:11.698Z,5.80
2023-03-17T23:08:39.456Z,5.80
2023-03-17T23:11:10.637Z,5.70
2023-03-17T23:13:38.194Z,5.70
2023-03-17T23:16:06.527Z,5.70
2023-03-17T23:18:34.022Z,5.70
2023-03-17T23:21:01.919Z,5.70
2023-03-17T23:23:29.214Z,5.70
2023-03-17T23:25:56.421Z,5.70
2023-03-17T23:28:24.140Z,5.80
2023-03-17T23:30:52.048Z,5.80
2023-03-17T23:33:22.813Z,5.80
2023-03-17T23:35:51.418Z,5.80
2023-03-17T23:38:22.332Z,5.90
2023-03-17T23:40:49.770Z,5.90
2023-03-17T23:43:18.434Z,5.90
2023-03-17T23:45:45.981Z,5.80
2023-03-17T23:48:32.872Z,5.90
2023-03-17T23:51:01.203Z,5.90
2023-03-17T23:53:29.812Z,5.90
2023-03-17T23:55:56.928Z,5.80
2023-03-17T23:58:25.944Z,5.80
